createdAt,value
2017-08-14T00:01:28.969Z,78.20
2017-08-14T00:06:57.146Z,78.20
2017-08-14T00:12:25.339Z,78.30
2017-08-14T00:17:53.522Z,78.40
2017-08-14T00:23:21.718Z,78.50
2017-08-14T00:28:49.975Z,78.70
2017-08-14T00:34:18.256Z,78.70
2017-08-14T00:39:47.199Z,79.00
2017-08-14T00:45:15.368Z,79.00
2017-08-14T00:50:43.555Z,79.20
2017-08-14T00:56:11.720Z,79.20
2017-08-14T01:01:39.930Z,79.30
2017-08-14T01:07:08.124Z,79.20
2017-08-14T01:12:37.088Z,79.30
2017-08-14T01:18:06.031Z,79.50
2017-08-14T01:23:34.227Z,79.50
2017-08-14T01:29:03.184Z,79.60
2017-08-14T01:34:31.383Z,79.50
2017-08-14T01:39:59.646Z,79.70
2017-08-14T01:45:28.230Z,79.50
2017-08-14T01:50:56.435Z,79.50
2017-08-14T01:56:24.657Z,79.40
2017-08-14T02:01:52.843Z,79.60
2017-08-14T02:07:21.053Z,79.50
2017-08-14T02:12:49.233Z,79.60
2017-08-14T02:18:17.795Z,79.70
2017-08-14T02:23:45.978Z,79.80
2017-08-14T02:29:14.148Z,79.80
2017-08-14T02:34:42.334Z,79.90
2017-08-14T02:40:11.278Z,80.00
2017-08-14T02:45:39.466Z,80.00
2017-08-14T02:51:08.412Z,80.30
2017-08-14T02:56:36.611Z,80.30
2017-08-14T03:02:04.809Z,80.20
2017-08-14T03:07:32.984Z,80.20
2017-08-14T03:13:01.152Z,80.40
2017-08-14T03:18:29.363Z,80.50
2017-08-14T03:23:57.929Z,80.40
2017-08-14T03:29:26.108Z,80.50
2017-08-14T03:34:54.336Z,80.50
2017-08-14T03:40:22.540Z,80.60
2017-08-14T03:45:50.720Z,80.60
2017-08-14T03:51:19.129Z,80.70
2017-08-14T03:56:47.321Z,80.70
2017-08-14T04:02:15.511Z,80.60
2017-08-14T04:07:44.461Z,80.50
2017-08-14T04:13:12.632Z,80.50
2017-08-14T04:18:40.829Z,80.70
2017-08-14T04:24:09.040Z,80.70
2017-08-14T04:29:37.248Z,80.70
2017-08-14T04:35:05.438Z,80.90
2017-08-14T04:40:33.648Z,81.00
2017-08-14T04:46:01.858Z,81.30
2017-08-14T04:51:30.063Z,81.30
2017-08-14T04:56:59.009Z,81.30
2017-08-14T05:02:27.189Z,81.30
2017-08-14T05:07:56.169Z,81.40
2017-08-14T05:13:25.131Z,81.20
2017-08-14T05:18:53.337Z,81.20
2017-08-14T05:24:21.537Z,81.30
2017-08-14T05:29:49.735Z,81.20
2017-08-14T05:35:18.713Z,81.10
2017-08-14T05:40:46.902Z,81.00
2017-08-14T05:46:15.104Z,80.90
2017-08-14T05:51:43.347Z,80.90
2017-08-14T05:57:11.677Z,80.70
2017-08-14T06:02:39.856Z,80.50
2017-08-14T06:08:08.057Z,80.20
2017-08-14T06:13:37.016Z,79.70
2017-08-14T06:19:05.217Z,79.70
2017-08-14T06:24:33.428Z,79.20
2017-08-14T06:30:01.640Z,78.90
2017-08-14T06:35:29.840Z,78.50
2017-08-14T06:40:58.026Z,77.70
2017-08-14T06:46:27.009Z,76.40
2017-08-14T06:51:55.970Z,76.10
2017-08-14T06:57:24.937Z,75.60
2017-08-14T07:02:53.144Z,75.60
2017-08-14T07:08:21.326Z,74.70
2017-08-14T07:13:49.541Z,75.10
2017-08-14T07:19:18.533Z,73.50
2017-08-14T07:24:46.754Z,73.40
2017-08-14T07:30:15.391Z,72.20
2017-08-14T07:35:43.591Z,71.00
2017-08-14T07:41:11.760Z,70.50
2017-08-14T07:46:40.756Z,68.90
2017-08-14T07:52:08.928Z,68.80
2017-08-14T07:57:37.129Z,68.80
2017-08-14T08:03:05.313Z,67.60
2017-08-14T08:08:34.252Z,66.60
2017-08-14T08:14:02.434Z,66.40
2017-08-14T08:19:30.618Z,63.90
2017-08-14T08:24:58.803Z,64.30
2017-08-14T08:30:26.984Z,63.50
2017-08-14T08:35:55.183Z,62.70
2017-08-14T08:41:23.367Z,62.90
2017-08-14T08:46:51.565Z,61.60
2017-08-14T08:52:19.773Z,61.50
2017-08-14T08:57:47.975Z,60.20
2017-08-14T09:03:16.153Z,59.40
2017-08-14T09:08:44.352Z,57.70
2017-08-14T09:14:12.519Z,58.20
2017-08-14T09:19:40.720Z,58.70
2017-08-14T09:25:08.920Z,58.10
2017-08-14T09:30:37.101Z,58.40
2017-08-14T09:36:05.410Z,58.30
2017-08-14T09:41:33.595Z,56.50
2017-08-14T09:47:01.775Z,56.30
2017-08-14T09:52:29.956Z,56.10
2017-08-14T09:57:58.159Z,55.20
2017-08-14T10:03:27.140Z,56.60
2017-08-14T10:08:55.357Z,55.90
2017-08-14T10:14:23.642Z,55.10
2017-08-14T10:19:52.632Z,52.30
2017-08-14T10:25:20.857Z,52.20
2017-08-14T10:30:49.091Z,52.80
2017-08-14T10:36:17.265Z,51.60
2017-08-14T10:41:45.460Z,51.90
2017-08-14T10:47:13.628Z,52.40
2017-08-14T10:52:42.594Z,50.70
2017-08-14T10:58:11.535Z,50.60
2017-08-14T11:03:40.103Z,50.30
2017-08-14T11:09:08.317Z,50.20
2017-08-14T11:14:36.496Z,49.40
2017-08-14T11:20:04.678Z,50.20
2017-08-14T11:25:32.862Z,48.20
2017-08-14T11:31:01.035Z,48.50
2017-08-14T11:36:29.984Z,47.20
2017-08-14T11:41:58.170Z,47.10
2017-08-14T11:47:27.140Z,49.00
2017-08-14T11:52:56.093Z,48.80
2017-08-14T11:58:24.286Z,48.80
2017-08-14T12:03:53.250Z,48.10
2017-08-14T12:09:22.192Z,49.80
2017-08-14T12:14:50.372Z,49.80
2017-08-14T12:20:18.559Z,48.70
2017-08-14T12:25:47.607Z,48.90
2017-08-14T12:31:15.780Z,48.70
2017-08-14T12:36:43.981Z,49.10
2017-08-14T12:42:12.147Z,49.80
2017-08-14T12:47:40.328Z,49.60
2017-08-14T12:53:08.522Z,49.40
2017-08-14T12:58:36.744Z,48.70
2017-08-14T13:04:04.944Z,49.60
2017-08-14T13:09:33.916Z,49.80
2017-08-14T13:15:02.863Z,48.20
2017-08-14T13:20:31.064Z,48.10
2017-08-14T13:25:59.250Z,48.70
2017-08-14T13:31:27.431Z,49.30
2017-08-14T13:36:55.618Z,47.90
2017-08-14T13:42:24.606Z,47.40
2017-08-14T13:47:53.548Z,47.50
2017-08-14T13:53:21.744Z,47.40
2017-08-14T13:58:50.693Z,47.40
2017-08-14T14:04:18.917Z,47.40
2017-08-14T14:09:47.117Z,46.50
2017-08-14T14:15:15.749Z,48.40
2017-08-14T14:20:43.928Z,46.90
2017-08-14T14:26:12.122Z,46.50
2017-08-14T14:31:41.237Z,47.00
2017-08-14T14:37:09.417Z,46.50
2017-08-14T14:42:37.610Z,45.50
2017-08-14T14:48:06.579Z,38.40
2017-08-14T14:53:34.769Z,38.30
2017-08-14T14:59:02.939Z,35.20
2017-08-14T15:04:31.120Z,34.00
2017-08-14T15:09:59.317Z,35.80
2017-08-14T15:15:27.492Z,38.80
2017-08-14T15:20:56.459Z,43.10
2017-08-14T15:26:25.411Z,43.10
2017-08-14T15:31:53.655Z,43.00
2017-08-14T15:37:21.873Z,43.90
2017-08-14T15:42:50.056Z,43.90
2017-08-14T15:48:18.242Z,46.00
2017-08-14T15:53:46.439Z,45.90
2017-08-14T15:59:15.410Z,46.90
2017-08-14T16:04:44.345Z,47.50
2017-08-14T16:10:12.531Z,47.40
2017-08-14T16:15:40.735Z,49.10
2017-08-14T16:21:08.931Z,49.40
2017-08-14T16:26:37.126Z,50.10
2017-08-14T16:32:06.077Z,51.40
2017-08-14T16:37:34.249Z,51.40
2017-08-14T16:43:02.432Z,51.50
2017-08-14T16:48:31.391Z,52.70
2017-08-14T16:53:59.569Z,52.70
2017-08-14T16:59:27.743Z,53.40
2017-08-14T17:04:55.947Z,53.80
2017-08-14T17:10:24.133Z,54.00
2017-08-14T17:15:53.079Z,54.60
2017-08-14T17:21:21.277Z,54.60
2017-08-14T17:26:49.471Z,54.80
2017-08-14T17:32:17.654Z,54.60
2017-08-14T17:37:45.838Z,55.30
2017-08-14T17:43:14.790Z,55.60
2017-08-14T17:48:42.976Z,55.60
2017-08-14T17:54:11.941Z,56.20
2017-08-14T17:59:40.911Z,56.40
2017-08-14T18:05:10.203Z,56.40
2017-08-14T18:10:39.168Z,56.40
2017-08-14T18:16:08.191Z,56.30
2017-08-14T18:21:36.389Z,56.50
2017-08-14T18:27:04.678Z,56.60
2017-08-14T18:32:33.638Z,56.30
2017-08-14T18:38:01.830Z,56.20
2017-08-14T18:43:30.037Z,56.30
2017-08-14T18:48:58.239Z,55.90
2017-08-14T18:54:26.451Z,56.00
2017-08-14T18:59:54.674Z,56.00
2017-08-14T19:05:22.865Z,56.00
2017-08-14T19:10:51.066Z,55.80
2017-08-14T19:16:19.328Z,55.80
2017-08-14T19:21:47.517Z,56.30
2017-08-14T19:27:15.711Z,56.50
2017-08-14T19:32:43.953Z,56.40
2017-08-14T19:38:12.149Z,57.10
2017-08-14T19:43:40.348Z,57.70
2017-08-14T19:49:08.555Z,58.10
2017-08-14T19:54:36.748Z,58.50
2017-08-14T20:00:04.940Z,58.90
2017-08-14T20:05:33.145Z,59.30
2017-08-14T20:11:02.116Z,59.90
2017-08-14T20:16:30.311Z,59.90
2017-08-14T20:21:58.509Z,60.10
2017-08-14T20:27:26.699Z,60.30
2017-08-14T20:32:55.681Z,61.70
2017-08-14T20:38:24.650Z,61.90
2017-08-14T20:43:53.636Z,61.60
2017-08-14T20:49:22.692Z,61.80
2017-08-14T20:54:50.880Z,61.80
2017-08-14T21:00:19.914Z,62.80
2017-08-14T21:05:48.145Z,62.80
2017-08-14T21:11:16.352Z,63.60
2017-08-14T21:16:44.545Z,63.80
2017-08-14T21:22:12.735Z,64.50
2017-08-14T21:27:40.947Z,64.30
2017-08-14T21:33:09.919Z,64.80
2017-08-14T21:38:38.100Z,64.70
2017-08-14T21:44:06.281Z,65.00
2017-08-14T21:49:34.494Z,65.40
2017-08-14T21:55:02.698Z,65.70
2017-08-14T22:00:30.908Z,66.40
2017-08-14T22:05:59.882Z,66.90
2017-08-14T22:11:28.094Z,67.50
2017-08-14T22:16:56.282Z,67.40
2017-08-14T22:22:24.465Z,67.90
2017-08-14T22:27:52.652Z,68.20
2017-08-14T22:33:20.864Z,68.30
2017-08-14T22:38:49.041Z,68.40
2017-08-14T22:44:17.226Z,68.70
2017-08-14T22:49:45.411Z,69.10
2017-08-14T22:55:13.598Z,69.40
2017-08-14T23:00:41.804Z,69.70
2017-08-14T23:06:09.984Z,70.10
2017-08-14T23:11:38.170Z,70.10
2017-08-14T23:17:06.372Z,70.20
2017-08-14T23:22:34.567Z,70.70
2017-08-14T23:28:02.765Z,71.10
2017-08-14T23:33:31.751Z,71.60
2017-08-14T23:39:00.702Z,71.80
2017-08-14T23:44:28.919Z,71.70
2017-08-14T23:49:57.128Z,71.80
2017-08-14T23:55:25.314Z,71.80
